sensor_id;sensor_type;location;lat;lon;timestamp;temperature;humidity
69382;DHT22;56560;50.692;12.844;2022-10-15T00:00:44;13.30;88.50
69382;DHT22;56560;50.692;12.844;2022-10-15T00:03:10;13.30;88.30
69382;DHT22;56560;50.692;12.844;2022-10-15T00:05:37;13.30;88.50
69382;DHT22;56560;50.692;12.844;2022-10-15T00:08:03;13.30;88.40
69382;DHT22;56560;50.692;12.844;2022-10-15T00:10:28;13.30;88.30
69382;DHT22;56560;50.692;12.844;2022-10-15T00:12:55;13.30;88.30
69382;DHT22;56560;50.692;12.844;2022-10-15T00:15:21;13.30;88.30
69382;DHT22;56560;50.692;12.844;2022-10-15T00:17:46;13.20;88.50
69382;DHT22;56560;50.692;12.844;2022-10-15T00:20:12;13.20;88.40
69382;DHT22;56560;50.692;12.844;2022-10-15T00:22:38;13.20;88.40
69382;DHT22;56560;50.692;12.844;2022-10-15T00:25:04;13.20;88.50
69382;DHT22;56560;50.692;12.844;2022-10-15T00:27:30;13.20;88.30
69382;DHT22;56560;50.692;12.844;2022-10-15T00:29:56;13.20;88.30
69382;DHT22;56560;50.692;12.844;2022-10-15T00:32:24;13.10;88.20
69382;DHT22;56560;50.692;12.844;2022-10-15T00:34:50;13.10;88.60
69382;DHT22;56560;50.692;12.844;2022-10-15T00:37:16;13.00;89.00
69382;DHT22;56560;50.692;12.844;2022-10-15T00:39:42;13.00;89.00
69382;DHT22;56560;50.692;12.844;2022-10-15T00:42:09;13.00;88.90
69382;DHT22;56560;50.692;12.844;2022-10-15T00:44:51;13.10;88.60
69382;DHT22;56560;50.692;12.844;2022-10-15T00:47:40;13.10;88.30
69382;DHT22;56560;50.692;12.844;2022-10-15T00:50:22;13.10;88.20
69382;DHT22;56560;50.692;12.844;2022-10-15T00:55:28;13.20;88.00
69382;DHT22;56560;50.692;12.844;2022-10-15T00:57:55;13.20;87.90
69382;DHT22;56560;50.692;12.844;2022-10-15T01:00:23;13.20;87.60
69382;DHT22;56560;50.692;12.844;2022-10-15T01:02:48;13.20;87.60
69382;DHT22;56560;50.692;12.844;2022-10-15T01:05:15;13.20;87.40
69382;DHT22;56560;50.692;12.844;2022-10-15T01:07:41;13.20;87.40
69382;DHT22;56560;50.692;12.844;2022-10-15T01:10:09;13.10;87.40
69382;DHT22;56560;50.692;12.844;2022-10-15T01:15:23;13.10;87.60
69382;DHT22;56560;50.692;12.844;2022-10-15T01:18:14;13.10;87.50
69382;DHT22;56560;50.692;12.844;2022-10-15T01:32:21;13.10;87.40
69382;DHT22;56560;50.692;12.844;2022-10-15T01:35:11;13.10;87.30
69382;DHT22;56560;50.692;12.844;2022-10-15T01:40:20;13.10;87.50
69382;DHT22;56560;50.692;12.844;2022-10-15T01:42:56;13.10;87.40
69382;DHT22;56560;50.692;12.844;2022-10-15T01:45:39;13.10;87.50
69382;DHT22;56560;50.692;12.844;2022-10-15T01:48:08;13.10;87.50
69382;DHT22;56560;50.692;12.844;2022-10-15T01:50:38;13.10;87.50
69382;DHT22;56560;50.692;12.844;2022-10-15T01:53:06;13.10;87.40
69382;DHT22;56560;50.692;12.844;2022-10-15T01:55:33;13.20;87.20
69382;DHT22;56560;50.692;12.844;2022-10-15T01:58:02;13.20;87.00
69382;DHT22;56560;50.692;12.844;2022-10-15T02:00:28;13.20;87.10
69382;DHT22;56560;50.692;12.844;2022-10-15T02:02:59;13.20;87.10
69382;DHT22;56560;50.692;12.844;2022-10-15T02:05:31;13.20;87.10
69382;DHT22;56560;50.692;12.844;2022-10-15T02:08:17;13.20;87.10
69382;DHT22;56560;50.692;12.844;2022-10-15T02:11:07;13.20;87.30
69382;DHT22;56560;50.692;12.844;2022-10-15T02:16:49;13.30;87.20
69382;DHT22;56560;50.692;12.844;2022-10-15T02:19:22;13.30;87.00
69382;DHT22;56560;50.692;12.844;2022-10-15T02:22:00;13.30;86.80
69382;DHT22;56560;50.692;12.844;2022-10-15T02:24:33;13.40;86.80
69382;DHT22;56560;50.692;12.844;2022-10-15T02:27:01;13.40;86.90
69382;DHT22;56560;50.692;12.844;2022-10-15T02:29:32;13.40;86.80
69382;DHT22;56560;50.692;12.844;2022-10-15T02:31:59;13.40;86.80
69382;DHT22;56560;50.692;12.844;2022-10-15T02:34:28;13.40;86.70
69382;DHT22;56560;50.692;12.844;2022-10-15T02:36:57;13.40;86.90
69382;DHT22;56560;50.692;12.844;2022-10-15T02:39:24;13.40;86.80
69382;DHT22;56560;50.692;12.844;2022-10-15T02:41:51;13.40;86.70
69382;DHT22;56560;50.692;12.844;2022-10-15T02:44:17;13.40;86.70
69382;DHT22;56560;50.692;12.844;2022-10-15T02:46:43;13.40;86.80
69382;DHT22;56560;50.692;12.844;2022-10-15T02:49:09;13.40;86.80
69382;DHT22;56560;50.692;12.844;2022-10-15T02:51:35;13.40;86.70
69382;DHT22;56560;50.692;12.844;2022-10-15T02:54:02;13.40;87.00
69382;DHT22;56560;50.692;12.844;2022-10-15T02:56:28;13.30;87.00
69382;DHT22;56560;50.692;12.844;2022-10-15T02:58:54;13.30;87.10
69382;DHT22;56560;50.692;12.844;2022-10-15T03:01:20;13.30;87.10
69382;DHT22;56560;50.692;12.844;2022-10-15T03:03:45;13.30;86.90
69382;DHT22;56560;50.692;12.844;2022-10-15T03:06:11;13.30;87.00
69382;DHT22;56560;50.692;12.844;2022-10-15T03:08:37;13.30;87.00
69382;DHT22;56560;50.692;12.844;2022-10-15T03:11:02;13.30;86.60
69382;DHT22;56560;50.692;12.844;2022-10-15T03:13:28;13.30;87.00
69382;DHT22;56560;50.692;12.844;2022-10-15T03:15:54;13.30;86.90
69382;DHT22;56560;50.692;12.844;2022-10-15T03:18:20;13.30;86.90
69382;DHT22;56560;50.692;12.844;2022-10-15T03:20:54;13.30;87.00
69382;DHT22;56560;50.692;12.844;2022-10-15T03:23:19;13.30;86.90
69382;DHT22;56560;50.692;12.844;2022-10-15T03:25:45;13.30;87.20
69382;DHT22;56560;50.692;12.844;2022-10-15T03:28:11;13.20;87.10
69382;DHT22;56560;50.692;12.844;2022-10-15T03:30:37;13.20;87.20
69382;DHT22;56560;50.692;12.844;2022-10-15T03:33:02;13.20;87.20
69382;DHT22;56560;50.692;12.844;2022-10-15T03:35:28;13.30;87.00
69382;DHT22;56560;50.692;12.844;2022-10-15T03:37:53;13.30;87.00
69382;DHT22;56560;50.692;12.844;2022-10-15T03:40:19;13.30;86.80
69382;DHT22;56560;50.692;12.844;2022-10-15T03:42:49;13.30;87.00
69382;DHT22;56560;50.692;12.844;2022-10-15T03:45:19;13.30;86.70
69382;DHT22;56560;50.692;12.844;2022-10-15T03:47:45;13.40;86.60
69382;DHT22;56560;50.692;12.844;2022-10-15T03:50:11;13.40;86.50
69382;DHT22;56560;50.692;12.844;2022-10-15T03:52:37;13.40;86.50
69382;DHT22;56560;50.692;12.844;2022-10-15T03:55:03;13.40;86.70
69382;DHT22;56560;50.692;12.844;2022-10-15T03:57:29;13.40;86.70
69382;DHT22;56560;50.692;12.844;2022-10-15T03:59:55;13.40;86.30
69382;DHT22;56560;50.692;12.844;2022-10-15T04:02:20;13.40;86.30
69382;DHT22;56560;50.692;12.844;2022-10-15T04:04:46;13.40;86.40
69382;DHT22;56560;50.692;12.844;2022-10-15T04:07:12;13.50;86.30
69382;DHT22;56560;50.692;12.844;2022-10-15T04:09:37;13.50;86.50
69382;DHT22;56560;50.692;12.844;2022-10-15T04:12:03;13.40;86.50
69382;DHT22;56560;50.692;12.844;2022-10-15T04:14:29;13.50;86.40
69382;DHT22;56560;50.692;12.844;2022-10-15T04:16:55;13.50;86.30
69382;DHT22;56560;50.692;12.844;2022-10-15T04:19:23;13.60;85.90
69382;DHT22;56560;50.692;12.844;2022-10-15T04:21:49;13.60;85.90
69382;DHT22;56560;50.692;12.844;2022-10-15T04:24:14;13.60;85.90
69382;DHT22;56560;50.692;12.844;2022-10-15T04:26:40;13.60;85.90
69382;DHT22;56560;50.692;12.844;2022-10-15T04:29:05;13.70;85.60
69382;DHT22;56560;50.692;12.844;2022-10-15T04:31:31;13.70;85.80
69382;DHT22;56560;50.692;12.844;2022-10-15T04:33:57;13.60;86.10
69382;DHT22;56560;50.692;12.844;2022-10-15T04:36:23;13.60;86.00
69382;DHT22;56560;50.692;12.844;2022-10-15T04:38:48;13.70;85.80
69382;DHT22;56560;50.692;12.844;2022-10-15T04:41:14;13.70;85.70
69382;DHT22;56560;50.692;12.844;2022-10-15T04:43:40;13.70;85.90
69382;DHT22;56560;50.692;12.844;2022-10-15T04:46:06;13.70;85.80
69382;DHT22;56560;50.692;12.844;2022-10-15T04:48:34;13.70;86.00
69382;DHT22;56560;50.692;12.844;2022-10-15T04:51:08;13.70;86.20
69382;DHT22;56560;50.692;12.844;2022-10-15T04:53:35;13.70;86.30
69382;DHT22;56560;50.692;12.844;2022-10-15T04:56:06;13.60;86.40
69382;DHT22;56560;50.692;12.844;2022-10-15T04:58:34;13.60;86.50
69382;DHT22;56560;50.692;12.844;2022-10-15T05:01:05;13.60;86.70
69382;DHT22;56560;50.692;12.844;2022-10-15T05:03:31;13.60;87.00
69382;DHT22;56560;50.692;12.844;2022-10-15T05:06:02;13.60;87.00
69382;DHT22;56560;50.692;12.844;2022-10-15T05:08:29;13.50;87.50
69382;DHT22;56560;50.692;12.844;2022-10-15T05:11:02;13.50;87.60
69382;DHT22;56560;50.692;12.844;2022-10-15T05:13:29;13.50;87.50
69382;DHT22;56560;50.692;12.844;2022-10-15T05:15:55;13.50;87.90
69382;DHT22;56560;50.692;12.844;2022-10-15T05:18:21;13.50;88.20
69382;DHT22;56560;50.692;12.844;2022-10-15T05:20:47;13.50;88.40
69382;DHT22;56560;50.692;12.844;2022-10-15T05:23:13;13.50;88.40
69382;DHT22;56560;50.692;12.844;2022-10-15T05:25:38;13.50;88.70
69382;DHT22;56560;50.692;12.844;2022-10-15T05:28:04;13.50;88.80
69382;DHT22;56560;50.692;12.844;2022-10-15T05:30:30;13.50;88.80
69382;DHT22;56560;50.692;12.844;2022-10-15T05:32:55;13.50;88.80
69382;DHT22;56560;50.692;12.844;2022-10-15T05:35:21;13.50;88.90
69382;DHT22;56560;50.692;12.844;2022-10-15T05:37:48;13.50;89.00
69382;DHT22;56560;50.692;12.844;2022-10-15T05:40:14;13.50;89.10
69382;DHT22;56560;50.692;12.844;2022-10-15T05:42:39;13.50;89.10
69382;DHT22;56560;50.692;12.844;2022-10-15T05:45:08;13.50;88.90
69382;DHT22;56560;50.692;12.844;2022-10-15T05:47:34;13.50;88.80
69382;DHT22;56560;50.692;12.844;2022-10-15T05:50:00;13.60;88.90
69382;DHT22;56560;50.692;12.844;2022-10-15T05:52:25;13.60;88.80
69382;DHT22;56560;50.692;12.844;2022-10-15T05:54:51;13.60;88.50
69382;DHT22;56560;50.692;12.844;2022-10-15T05:57:17;13.70;88.40
69382;DHT22;56560;50.692;12.844;2022-10-15T05:59:42;13.70;88.40
69382;DHT22;56560;50.692;12.844;2022-10-15T06:02:09;13.70;88.30
69382;DHT22;56560;50.692;12.844;2022-10-15T06:04:40;13.70;88.20
69382;DHT22;56560;50.692;12.844;2022-10-15T06:07:06;13.70;88.00
69382;DHT22;56560;50.692;12.844;2022-10-15T06:09:32;13.80;88.00
69382;DHT22;56560;50.692;12.844;2022-10-15T06:11:57;13.80;87.90
69382;DHT22;56560;50.692;12.844;2022-10-15T06:14:23;13.80;87.90
69382;DHT22;56560;50.692;12.844;2022-10-15T06:16:49;13.80;87.90
69382;DHT22;56560;50.692;12.844;2022-10-15T06:19:15;13.80;87.70
69382;DHT22;56560;50.692;12.844;2022-10-15T06:21:41;13.80;87.70
69382;DHT22;56560;50.692;12.844;2022-10-15T06:24:06;13.80;87.80
69382;DHT22;56560;50.692;12.844;2022-10-15T06:26:32;13.80;87.90
69382;DHT22;56560;50.692;12.844;2022-10-15T06:28:58;13.90;87.90
69382;DHT22;56560;50.692;12.844;2022-10-15T06:31:24;13.90;88.10
69382;DHT22;56560;50.692;12.844;2022-10-15T06:33:49;14.00;87.80
69382;DHT22;56560;50.692;12.844;2022-10-15T06:36:15;14.00;87.30
69382;DHT22;56560;50.692;12.844;2022-10-15T06:38:40;14.10;87.00
69382;DHT22;56560;50.692;12.844;2022-10-15T06:41:08;14.20;86.70
69382;DHT22;56560;50.692;12.844;2022-10-15T06:43:34;14.20;86.40
69382;DHT22;56560;50.692;12.844;2022-10-15T06:46:00;14.30;86.50
69382;DHT22;56560;50.692;12.844;2022-10-15T06:48:26;14.30;86.30
69382;DHT22;56560;50.692;12.844;2022-10-15T06:50:52;14.40;85.90
69382;DHT22;56560;50.692;12.844;2022-10-15T06:53:17;14.50;85.40
69382;DHT22;56560;50.692;12.844;2022-10-15T06:55:43;14.50;85.30
69382;DHT22;56560;50.692;12.844;2022-10-15T06:58:09;14.70;85.20
69382;DHT22;56560;50.692;12.844;2022-10-15T07:00:34;14.80;84.70
69382;DHT22;56560;50.692;12.844;2022-10-15T07:03:04;14.90;84.10
69382;DHT22;56560;50.692;12.844;2022-10-15T07:05:30;15.10;84.10
69382;DHT22;56560;50.692;12.844;2022-10-15T07:07:56;15.40;83.20
69382;DHT22;56560;50.692;12.844;2022-10-15T07:10:24;15.70;82.40
69382;DHT22;56560;50.692;12.844;2022-10-15T07:12:50;16.00;81.20
69382;DHT22;56560;50.692;12.844;2022-10-15T07:15:16;16.20;79.50
69382;DHT22;56560;50.692;12.844;2022-10-15T07:17:49;16.30;78.50
69382;DHT22;56560;50.692;12.844;2022-10-15T07:20:16;16.30;77.10
69382;DHT22;56560;50.692;12.844;2022-10-15T07:22:42;16.30;78.00
69382;DHT22;56560;50.692;12.844;2022-10-15T07:25:08;16.30;77.80
69382;DHT22;56560;50.692;12.844;2022-10-15T07:27:35;16.20;78.20
69382;DHT22;56560;50.692;12.844;2022-10-15T07:30:01;16.00;78.60
69382;DHT22;56560;50.692;12.844;2022-10-15T07:32:26;15.90;78.90
69382;DHT22;56560;50.692;12.844;2022-10-15T07:34:52;15.80;79.50
69382;DHT22;56560;50.692;12.844;2022-10-15T07:37:18;15.80;80.00
69382;DHT22;56560;50.692;12.844;2022-10-15T07:39:43;15.70;80.50
69382;DHT22;56560;50.692;12.844;2022-10-15T07:42:09;15.70;80.10
69382;DHT22;56560;50.692;12.844;2022-10-15T07:44:34;15.70;80.70
69382;DHT22;56560;50.692;12.844;2022-10-15T07:47:00;15.70;81.50
69382;DHT22;56560;50.692;12.844;2022-10-15T07:49:25;15.70;81.90
69382;DHT22;56560;50.692;12.844;2022-10-15T07:51:51;15.90;81.50
69382;DHT22;56560;50.692;12.844;2022-10-15T07:54:17;16.00;81.50
69382;DHT22;56560;50.692;12.844;2022-10-15T07:56:42;16.10;81.10
69382;DHT22;56560;50.692;12.844;2022-10-15T07:59:08;16.20;81.20
69382;DHT22;56560;50.692;12.844;2022-10-15T08:01:33;16.20;81.10
69382;DHT22;56560;50.692;12.844;2022-10-15T08:03:59;16.20;81.80
69382;DHT22;56560;50.692;12.844;2022-10-15T08:06:25;16.40;81.20
69382;DHT22;56560;50.692;12.844;2022-10-15T08:08:50;16.60;80.40
69382;DHT22;56560;50.692;12.844;2022-10-15T08:11:16;16.80;78.70
69382;DHT22;56560;50.692;12.844;2022-10-15T08:13:43;17.00;79.30
69382;DHT22;56560;50.692;12.844;2022-10-15T08:16:10;17.20;78.70
69382;DHT22;56560;50.692;12.844;2022-10-15T08:18:36;17.40;77.60
69382;DHT22;56560;50.692;12.844;2022-10-15T08:21:03;17.60;77.50
69382;DHT22;56560;50.692;12.844;2022-10-15T08:23:30;17.70;76.10
69382;DHT22;56560;50.692;12.844;2022-10-15T08:25:59;17.70;76.70
69382;DHT22;56560;50.692;12.844;2022-10-15T08:28:29;17.70;76.50
69382;DHT22;56560;50.692;12.844;2022-10-15T08:30:59;17.50;76.30
69382;DHT22;56560;50.692;12.844;2022-10-15T08:33:25;17.40;76.90
69382;DHT22;56560;50.692;12.844;2022-10-15T08:35:51;17.30;77.80
69382;DHT22;56560;50.692;12.844;2022-10-15T08:38:17;17.20;78.10
69382;DHT22;56560;50.692;12.844;2022-10-15T08:40:51;17.10;78.30
69382;DHT22;56560;50.692;12.844;2022-10-15T08:43:34;17.00;78.90
69382;DHT22;56560;50.692;12.844;2022-10-15T08:46:03;17.00;79.10
69382;DHT22;56560;50.692;12.844;2022-10-15T08:48:36;17.10;79.80
69382;DHT22;56560;50.692;12.844;2022-10-15T08:51:07;17.20;78.60
69382;DHT22;56560;50.692;12.844;2022-10-15T08:53:39;17.20;78.70
69382;DHT22;56560;50.692;12.844;2022-10-15T08:56:36;17.10;79.70
69382;DHT22;56560;50.692;12.844;2022-10-15T09:02:18;17.00;79.80
69382;DHT22;56560;50.692;12.844;2022-10-15T09:10:26;16.80;81.20
69382;DHT22;56560;50.692;12.844;2022-10-15T09:13:03;16.80;81.50
69382;DHT22;56560;50.692;12.844;2022-10-15T09:15:36;16.80;81.50
69382;DHT22;56560;50.692;12.844;2022-10-15T09:18:10;16.90;81.30
69382;DHT22;56560;50.692;12.844;2022-10-15T09:20:41;16.90;81.40
69382;DHT22;56560;50.692;12.844;2022-10-15T09:23:22;16.90;81.60
69382;DHT22;56560;50.692;12.844;2022-10-15T09:31:37;17.30;80.70
69382;DHT22;56560;50.692;12.844;2022-10-15T09:36:59;17.20;79.70
69382;DHT22;56560;50.692;12.844;2022-10-15T09:42:56;17.10;80.90
69382;DHT22;56560;50.692;12.844;2022-10-15T09:45:10;17.10;80.30
69382;DHT22;56560;50.692;12.844;2022-10-15T09:47:39;17.10;80.80
69382;DHT22;56560;50.692;12.844;2022-10-15T09:50:08;16.90;80.60
69382;DHT22;56560;50.692;12.844;2022-10-15T09:58:00;17.20;80.20
69382;DHT22;56560;50.692;12.844;2022-10-15T10:00:58;17.30;80.30
69382;DHT22;56560;50.692;12.844;2022-10-15T10:03:27;17.40;79.10
69382;DHT22;56560;50.692;12.844;2022-10-15T10:06:08;17.50;78.90
69382;DHT22;56560;50.692;12.844;2022-10-15T10:08:46;17.50;79.90
69382;DHT22;56560;50.692;12.844;2022-10-15T10:11:13;17.70;78.80
69382;DHT22;56560;50.692;12.844;2022-10-15T10:13:59;17.80;78.70
69382;DHT22;56560;50.692;12.844;2022-10-15T10:16:26;18.10;78.20
69382;DHT22;56560;50.692;12.844;2022-10-15T10:19:11;18.20;76.70
69382;DHT22;56560;50.692;12.844;2022-10-15T10:21:39;18.40;76.50
69382;DHT22;56560;50.692;12.844;2022-10-15T10:26:49;18.60;74.40
69382;DHT22;56560;50.692;12.844;2022-10-15T10:29:18;18.60;74.30
69382;DHT22;56560;50.692;12.844;2022-10-15T10:31:44;18.70;73.40
69382;DHT22;56560;50.692;12.844;2022-10-15T10:34:26;18.70;74.40
69382;DHT22;56560;50.692;12.844;2022-10-15T10:36:52;18.40;74.60
69382;DHT22;56560;50.692;12.844;2022-10-15T10:39:29;18.40;74.90
69382;DHT22;56560;50.692;12.844;2022-10-15T10:41:58;18.40;74.80
69382;DHT22;56560;50.692;12.844;2022-10-15T10:49:35;18.60;74.60
69382;DHT22;56560;50.692;12.844;2022-10-15T10:52:02;18.60;74.10
69382;DHT22;56560;50.692;12.844;2022-10-15T10:54:28;18.60;75.50
69382;DHT22;56560;50.692;12.844;2022-10-15T10:56:55;18.40;75.90
69382;DHT22;56560;50.692;12.844;2022-10-15T10:59:41;18.20;75.90
69382;DHT22;56560;50.692;12.844;2022-10-15T11:02:11;18.10;77.50
69382;DHT22;56560;50.692;12.844;2022-10-15T11:04:38;17.90;78.30
69382;DHT22;56560;50.692;12.844;2022-10-15T11:18:26;18.20;78.10
69382;DHT22;56560;50.692;12.844;2022-10-15T11:29:34;20.40;72.60
69382;DHT22;56560;50.692;12.844;2022-10-15T11:32:35;21.00;68.50
69382;DHT22;56560;50.692;12.844;2022-10-15T11:41:02;21.20;64.70
69382;DHT22;56560;50.692;12.844;2022-10-15T11:55:03;19.60;69.90
69382;DHT22;56560;50.692;12.844;2022-10-15T11:57:33;19.50;70.10
69382;DHT22;56560;50.692;12.844;2022-10-15T12:00:05;19.50;71.20
69382;DHT22;56560;50.692;12.844;2022-10-15T12:02:36;19.60;71.80
69382;DHT22;56560;50.692;12.844;2022-10-15T12:05:16;19.60;70.80
69382;DHT22;56560;50.692;12.844;2022-10-15T12:07:46;19.60;69.80
69382;DHT22;56560;50.692;12.844;2022-10-15T12:15:44;19.50;70.50
69382;DHT22;56560;50.692;12.844;2022-10-15T12:18:25;19.50;70.00
69382;DHT22;56560;50.692;12.844;2022-10-15T12:20:53;19.60;71.00
69382;DHT22;56560;50.692;12.844;2022-10-15T12:23:26;20.10;69.90
69382;DHT22;56560;50.692;12.844;2022-10-15T12:26:32;20.20;68.20
69382;DHT22;56560;50.692;12.844;2022-10-15T12:29:00;20.00;68.00
69382;DHT22;56560;50.692;12.844;2022-10-15T12:31:52;19.70;69.80
69382;DHT22;56560;50.692;12.844;2022-10-15T12:34:39;19.70;70.30
69382;DHT22;56560;50.692;12.844;2022-10-15T12:37:15;20.40;67.90
69382;DHT22;56560;50.692;12.844;2022-10-15T12:39:42;20.60;67.20
69382;DHT22;56560;50.692;12.844;2022-10-15T12:42:35;20.50;66.40
69382;DHT22;56560;50.692;12.844;2022-10-15T12:45:06;20.50;66.20
69382;DHT22;56560;50.692;12.844;2022-10-15T12:50:31;22.00;62.10
69382;DHT22;56560;50.692;12.844;2022-10-15T12:53:01;22.20;61.00
69382;DHT22;56560;50.692;12.844;2022-10-15T12:55:28;22.70;61.00
69382;DHT22;56560;50.692;12.844;2022-10-15T12:57:55;23.40;58.50
69382;DHT22;56560;50.692;12.844;2022-10-15T13:00:37;24.00;56.10
69382;DHT22;56560;50.692;12.844;2022-10-15T13:03:15;24.70;54.50
69382;DHT22;56560;50.692;12.844;2022-10-15T13:05:41;24.90;52.70
69382;DHT22;56560;50.692;12.844;2022-10-15T13:08:14;25.10;52.70
69382;DHT22;56560;50.692;12.844;2022-10-15T13:11:11;25.10;53.50
69382;DHT22;56560;50.692;12.844;2022-10-15T13:13:42;25.00;52.70
69382;DHT22;56560;50.692;12.844;2022-10-15T13:16:08;24.30;53.90
69382;DHT22;56560;50.692;12.844;2022-10-15T13:18:34;23.10;56.70
69382;DHT22;56560;50.692;12.844;2022-10-15T13:21:00;22.20;58.90
69382;DHT22;56560;50.692;12.844;2022-10-15T13:23:29;21.40;60.60
69382;DHT22;56560;50.692;12.844;2022-10-15T13:26:20;20.80;61.50
69382;DHT22;56560;50.692;12.844;2022-10-15T13:28:50;20.50;62.90
69382;DHT22;56560;50.692;12.844;2022-10-15T13:31:26;20.40;64.40
69382;DHT22;56560;50.692;12.844;2022-10-15T13:33:57;20.20;64.90
69382;DHT22;56560;50.692;12.844;2022-10-15T13:36:30;19.80;66.00
69382;DHT22;56560;50.692;12.844;2022-10-15T13:39:06;19.50;67.50
69382;DHT22;56560;50.692;12.844;2022-10-15T13:41:37;19.10;67.90
69382;DHT22;56560;50.692;12.844;2022-10-15T13:44:04;18.90;68.50
69382;DHT22;56560;50.692;12.844;2022-10-15T13:46:32;18.80;68.80
69382;DHT22;56560;50.692;12.844;2022-10-15T13:49:00;18.80;68.00
69382;DHT22;56560;50.692;12.844;2022-10-15T13:51:37;18.70;68.00
69382;DHT22;56560;50.692;12.844;2022-10-15T13:54:08;18.60;68.60
69382;DHT22;56560;50.692;12.844;2022-10-15T13:56:34;18.60;68.30
69382;DHT22;56560;50.692;12.844;2022-10-15T13:59:01;18.60;68.80
69382;DHT22;56560;50.692;12.844;2022-10-15T14:01:28;18.60;69.00
69382;DHT22;56560;50.692;12.844;2022-10-15T14:03:56;18.50;69.10
69382;DHT22;56560;50.692;12.844;2022-10-15T14:06:32;18.60;68.80
69382;DHT22;56560;50.692;12.844;2022-10-15T14:09:21;19.00;67.90
69382;DHT22;56560;50.692;12.844;2022-10-15T14:11:54;19.40;65.80
69382;DHT22;56560;50.692;12.844;2022-10-15T14:16:57;19.80;64.50
69382;DHT22;56560;50.692;12.844;2022-10-15T14:19:25;19.70;65.30
69382;DHT22;56560;50.692;12.844;2022-10-15T14:21:55;19.50;65.40
69382;DHT22;56560;50.692;12.844;2022-10-15T14:24:23;19.40;66.30
69382;DHT22;56560;50.692;12.844;2022-10-15T14:26:51;19.30;66.10
69382;DHT22;56560;50.692;12.844;2022-10-15T14:31:47;18.90;67.40
69382;DHT22;56560;50.692;12.844;2022-10-15T14:37:01;18.30;69.40
69382;DHT22;56560;50.692;12.844;2022-10-15T14:39:35;18.20;69.90
69382;DHT22;56560;50.692;12.844;2022-10-15T14:42:04;18.20;70.50
69382;DHT22;56560;50.692;12.844;2022-10-15T14:49:42;17.80;71.60
69382;DHT22;56560;50.692;12.844;2022-10-15T14:52:15;17.70;72.10
69382;DHT22;56560;50.692;12.844;2022-10-15T14:57:25;17.60;72.30
69382;DHT22;56560;50.692;12.844;2022-10-15T14:59:53;17.50;72.60
69382;DHT22;56560;50.692;12.844;2022-10-15T15:02:22;17.50;72.10
69382;DHT22;56560;50.692;12.844;2022-10-15T15:07:37;17.40;72.60
69382;DHT22;56560;50.692;12.844;2022-10-15T15:10:05;17.40;72.80
69382;DHT22;56560;50.692;12.844;2022-10-15T15:12:31;17.30;73.00
69382;DHT22;56560;50.692;12.844;2022-10-15T15:14:58;17.30;73.40
69382;DHT22;56560;50.692;12.844;2022-10-15T15:17:25;17.30;72.90
69382;DHT22;56560;50.692;12.844;2022-10-15T15:19:52;17.30;73.50
69382;DHT22;56560;50.692;12.844;2022-10-15T15:24:50;17.20;73.70
69382;DHT22;56560;50.692;12.844;2022-10-15T15:27:27;17.20;73.80
69382;DHT22;56560;50.692;12.844;2022-10-15T15:29:54;17.30;73.70
69382;DHT22;56560;50.692;12.844;2022-10-15T15:32:20;17.40;73.40
69382;DHT22;56560;50.692;12.844;2022-10-15T15:34:47;17.40;73.10
69382;DHT22;56560;50.692;12.844;2022-10-15T15:37:17;17.30;73.90
69382;DHT22;56560;50.692;12.844;2022-10-15T15:39:43;17.30;73.80
69382;DHT22;56560;50.692;12.844;2022-10-15T15:42:14;17.20;74.50
69382;DHT22;56560;50.692;12.844;2022-10-15T15:44:40;17.10;74.60
69382;DHT22;56560;50.692;12.844;2022-10-15T15:47:06;17.10;74.50
69382;DHT22;56560;50.692;12.844;2022-10-15T15:49:32;17.10;74.70
69382;DHT22;56560;50.692;12.844;2022-10-15T15:51:58;17.10;74.90
69382;DHT22;56560;50.692;12.844;2022-10-15T15:54:23;17.10;75.00
69382;DHT22;56560;50.692;12.844;2022-10-15T15:56:49;16.90;75.40
69382;DHT22;56560;50.692;12.844;2022-10-15T15:59:14;16.80;75.60
69382;DHT22;56560;50.692;12.844;2022-10-15T16:01:41;16.70;76.10
69382;DHT22;56560;50.692;12.844;2022-10-15T16:04:07;16.60;76.70
69382;DHT22;56560;50.692;12.844;2022-10-15T16:06:33;16.40;77.20
69382;DHT22;56560;50.692;12.844;2022-10-15T16:08:58;16.20;78.20
69382;DHT22;56560;50.692;12.844;2022-10-15T16:11:24;16.00;79.20
69382;DHT22;56560;50.692;12.844;2022-10-15T16:13:51;15.90;79.90
69382;DHT22;56560;50.692;12.844;2022-10-15T16:16:16;15.70;80.30
69382;DHT22;56560;50.692;12.844;2022-10-15T16:18:42;15.60;80.60
69382;DHT22;56560;50.692;12.844;2022-10-15T16:21:08;15.50;81.60
69382;DHT22;56560;50.692;12.844;2022-10-15T16:23:33;15.40;81.80
69382;DHT22;56560;50.692;12.844;2022-10-15T16:25:59;15.30;81.90
69382;DHT22;56560;50.692;12.844;2022-10-15T16:28:25;15.20;82.30
69382;DHT22;56560;50.692;12.844;2022-10-15T16:30:50;15.10;82.50
69382;DHT22;56560;50.692;12.844;2022-10-15T16:33:16;14.90;82.80
69382;DHT22;56560;50.692;12.844;2022-10-15T16:35:42;14.80;83.00
69382;DHT22;56560;50.692;12.844;2022-10-15T16:38:07;14.80;83.60
69382;DHT22;56560;50.692;12.844;2022-10-15T16:40:33;14.70;83.50
69382;DHT22;56560;50.692;12.844;2022-10-15T16:42:59;14.50;84.10
69382;DHT22;56560;50.692;12.844;2022-10-15T16:45:25;14.40;84.80
69382;DHT22;56560;50.692;12.844;2022-10-15T16:47:51;14.30;84.90
69382;DHT22;56560;50.692;12.844;2022-10-15T16:50:16;14.20;84.90
69382;DHT22;56560;50.692;12.844;2022-10-15T16:52:42;14.10;84.90
69382;DHT22;56560;50.692;12.844;2022-10-15T16:55:08;14.00;85.70
69382;DHT22;56560;50.692;12.844;2022-10-15T16:57:33;13.90;86.00
69382;DHT22;56560;50.692;12.844;2022-10-15T16:59:59;13.80;86.30
69382;DHT22;56560;50.692;12.844;2022-10-15T17:02:25;13.80;86.90
69382;DHT22;56560;50.692;12.844;2022-10-15T17:04:50;13.70;87.40
69382;DHT22;56560;50.692;12.844;2022-10-15T17:07:17;13.70;87.50
69382;DHT22;56560;50.692;12.844;2022-10-15T17:09:43;13.60;87.20
69382;DHT22;56560;50.692;12.844;2022-10-15T17:12:10;13.60;87.30
69382;DHT22;56560;50.692;12.844;2022-10-15T17:14:36;13.50;87.10
69382;DHT22;56560;50.692;12.844;2022-10-15T17:17:02;13.40;87.50
69382;DHT22;56560;50.692;12.844;2022-10-15T17:19:27;13.30;87.70
69382;DHT22;56560;50.692;12.844;2022-10-15T17:21:53;13.20;88.10
69382;DHT22;56560;50.692;12.844;2022-10-15T17:24:20;13.20;88.80
69382;DHT22;56560;50.692;12.844;2022-10-15T17:26:46;13.20;89.40
69382;DHT22;56560;50.692;12.844;2022-10-15T17:29:17;13.20;89.90